createdAt,value
2023-05-06T00:00:08.438Z,0.95
2023-05-06T00:02:55.505Z,0.63
2023-05-06T00:05:43.383Z,1.00
2023-05-06T00:08:31.149Z,1.02
2023-05-06T00:11:18.036Z,0.75
2023-05-06T00:14:05.052Z,0.93
2023-05-06T00:16:51.974Z,0.95
2023-05-06T00:19:38.868Z,0.98
2023-05-06T00:22:26.005Z,0.93
2023-05-06T00:25:12.967Z,0.70
2023-05-06T00:27:59.807Z,0.80
2023-05-06T00:30:46.771Z,0.77
2023-05-06T00:33:33.637Z,1.17
2023-05-06T00:36:21.480Z,0.80
2023-05-06T00:39:09.824Z,0.73
2023-05-06T00:42:02.309Z,1.05
2023-05-06T00:44:52.581Z,1.17
2023-05-06T00:47:40.535Z,1.05
2023-05-06T00:50:28.576Z,1.10
2023-05-06T00:53:15.751Z,1.00
2023-05-06T00:56:03.936Z,1.00
2023-05-06T00:58:51.458Z,1.17
2023-05-06T01:01:38.787Z,0.90
2023-05-06T01:04:26.027Z,1.02
2023-05-06T01:07:37.645Z,1.23
2023-05-06T01:10:47.382Z,1.20
2023-05-06T01:13:50.055Z,1.08
2023-05-06T01:16:39.920Z,1.30
2023-05-06T01:19:38.925Z,1.42
2023-05-06T01:22:27.125Z,1.10
2023-05-06T01:25:21.715Z,1.33
2023-05-06T01:28:12.770Z,1.20
2023-05-06T01:31:03.825Z,1.20
2023-05-06T01:33:59.107Z,1.40
2023-05-06T01:36:53.646Z,1.50
2023-05-06T01:39:42.031Z,1.40
2023-05-06T01:42:31.266Z,2.03
2023-05-06T01:45:19.904Z,1.95
2023-05-06T01:48:07.213Z,1.45
2023-05-06T01:50:54.455Z,1.92
2023-05-06T01:53:41.409Z,1.48
2023-05-06T01:56:32.088Z,1.25
2023-05-06T01:59:19.008Z,1.40
2023-05-06T02:02:06.849Z,1.35
2023-05-06T02:04:53.953Z,1.35
2023-05-06T02:07:40.929Z,1.42
2023-05-06T02:10:27.788Z,1.40
2023-05-06T02:13:14.732Z,1.70
2023-05-06T02:16:02.294Z,1.90
2023-05-06T02:18:49.447Z,1.85
2023-05-06T02:21:36.582Z,2.03
2023-05-06T02:24:23.826Z,1.67
2023-05-06T02:27:10.911Z,1.60
2023-05-06T02:29:59.332Z,1.38
2023-05-06T02:32:47.218Z,1.40
2023-05-06T02:35:34.222Z,1.88
2023-05-06T02:38:21.546Z,1.73
2023-05-06T02:41:08.543Z,1.50
2023-05-06T02:43:55.476Z,1.80
2023-05-06T02:46:43.634Z,1.60
2023-05-06T02:49:30.741Z,1.88
2023-05-06T02:52:17.652Z,1.60
2023-05-06T02:55:05.750Z,1.35
2023-05-06T02:57:52.677Z,1.17
2023-05-06T03:00:39.617Z,1.52
2023-05-06T03:03:26.640Z,1.50
2023-05-06T03:06:13.499Z,1.25
2023-05-06T03:09:00.364Z,1.38
2023-05-06T03:11:47.348Z,1.63
2023-05-06T03:14:34.219Z,1.30
2023-05-06T03:17:21.108Z,1.38
2023-05-06T03:20:08.803Z,2.17
2023-05-06T03:22:56.501Z,1.67
2023-05-06T03:25:43.392Z,1.70
2023-05-06T03:28:30.839Z,1.67
2023-05-06T03:31:17.754Z,1.90
2023-05-06T03:34:04.624Z,3.20
2023-05-06T03:36:51.531Z,2.40
2023-05-06T03:39:38.383Z,2.63
2023-05-06T03:42:25.334Z,2.20
2023-05-06T03:45:12.554Z,2.47
2023-05-06T03:47:59.608Z,2.28
2023-05-06T03:50:46.769Z,2.67
2023-05-06T03:53:33.745Z,2.70
2023-05-06T03:56:21.881Z,3.00
2023-05-06T03:59:09.053Z,2.50
2023-05-06T04:01:56.346Z,2.50
2023-05-06T04:04:43.334Z,2.20
2023-05-06T04:07:31.065Z,2.35
2023-05-06T04:10:17.973Z,2.58
2023-05-06T04:13:04.879Z,2.25
2023-05-06T04:15:52.455Z,2.30
2023-05-06T04:18:39.862Z,1.88
2023-05-06T04:21:26.922Z,2.00
2023-05-06T04:24:15.902Z,2.20
2023-05-06T04:27:03.466Z,2.40
2023-05-06T04:29:50.851Z,2.13
2023-05-06T04:32:38.572Z,2.15
2023-05-06T04:35:25.593Z,2.30
2023-05-06T04:38:15.010Z,2.08
2023-05-06T04:41:01.832Z,2.35
2023-05-06T04:43:48.774Z,2.42
2023-05-06T04:46:36.068Z,2.60
2023-05-06T04:49:22.984Z,2.53
2023-05-06T04:52:09.829Z,1.98
2023-05-06T04:54:56.674Z,2.40
2023-05-06T04:57:43.808Z,2.35
2023-05-06T05:00:30.865Z,2.90
2023-05-06T05:03:17.841Z,2.53
2023-05-06T05:06:05.107Z,2.85
2023-05-06T05:08:52.155Z,2.55
2023-05-06T05:11:39.641Z,614.63
2023-05-06T05:14:26.474Z,786.58
2023-05-06T05:17:13.563Z,226.20
2023-05-06T05:20:00.787Z,52.92
2023-05-06T05:22:47.684Z,19.25
2023-05-06T05:25:34.501Z,18.20
2023-05-06T05:28:21.406Z,9.25
2023-05-06T05:31:10.188Z,7.75
2023-05-06T05:33:57.558Z,6.03
2023-05-06T05:36:44.462Z,5.32
2023-05-06T05:39:31.398Z,5.18
2023-05-06T05:42:18.296Z,3.88
2023-05-06T05:45:05.666Z,3.03
2023-05-06T05:47:54.112Z,3.75
2023-05-06T05:50:41.149Z,2.75
2023-05-06T05:53:28.263Z,3.03
2023-05-06T05:56:15.420Z,2.80
2023-05-06T05:59:02.486Z,2.60
2023-05-06T06:01:49.369Z,3.63
2023-05-06T06:04:37.576Z,2.80
2023-05-06T06:07:24.676Z,2.30
2023-05-06T06:10:13.368Z,3.03
2023-05-06T06:13:00.430Z,3.40
2023-05-06T06:15:47.389Z,2.67
2023-05-06T06:18:34.331Z,2.50
2023-05-06T06:21:21.239Z,2.47
2023-05-06T06:24:08.192Z,2.53
2023-05-06T06:26:55.167Z,2.22
2023-05-06T06:29:42.021Z,2.30
2023-05-06T06:32:28.926Z,2.90
2023-05-06T06:35:16.048Z,2.30
2023-05-06T06:38:03.051Z,2.80
2023-05-06T06:40:50.194Z,3.10
2023-05-06T06:43:37.121Z,2.42
2023-05-06T06:46:24.169Z,2.20
2023-05-06T06:49:11.105Z,2.17
2023-05-06T06:51:57.966Z,3.00
2023-05-06T06:54:44.859Z,2.25
2023-05-06T06:57:32.756Z,2.95
2023-05-06T07:00:19.647Z,2.03
2023-05-06T07:03:06.851Z,2.47
2023-05-06T07:05:53.771Z,2.03
2023-05-06T07:08:40.796Z,2.60
2023-05-06T07:11:27.638Z,2.42
2023-05-06T07:14:14.543Z,2.80
2023-05-06T07:17:01.520Z,2.60
2023-05-06T07:19:48.497Z,2.42
2023-05-06T07:22:35.824Z,2.58
2023-05-06T07:25:22.849Z,1.90
2023-05-06T07:28:09.760Z,2.35
2023-05-06T07:30:56.699Z,2.13
2023-05-06T07:33:43.543Z,2.53
2023-05-06T07:36:36.112Z,2.92
2023-05-06T07:39:24.170Z,2.53
2023-05-06T07:42:13.170Z,1.80
2023-05-06T07:45:00.137Z,2.08
2023-05-06T07:47:47.147Z,2.47
2023-05-06T07:50:34.474Z,1.80
2023-05-06T07:53:21.511Z,2.78
2023-05-06T07:56:08.354Z,2.58
2023-05-06T07:58:55.353Z,2.45
2023-05-06T08:01:42.302Z,2.25
2023-05-06T08:04:29.219Z,1.63
2023-05-06T08:07:16.122Z,1.90
2023-05-06T08:10:03.518Z,2.47
2023-05-06T08:12:50.592Z,1.67
2023-05-06T08:15:38.235Z,1.98
2023-05-06T08:18:25.136Z,1.98
2023-05-06T08:21:12.094Z,2.22
2023-05-06T08:23:58.915Z,2.22
2023-05-06T08:26:45.829Z,2.70
2023-05-06T08:29:32.697Z,2.25
2023-05-06T08:32:19.788Z,2.25
2023-05-06T08:35:07.296Z,2.10
2023-05-06T08:37:54.167Z,1.95
2023-05-06T08:40:44.336Z,2.08
2023-05-06T08:43:40.694Z,1.95
2023-05-06T08:46:30.789Z,2.35
2023-05-06T08:49:17.661Z,1.77
2023-05-06T08:52:06.281Z,2.10
2023-05-06T08:54:54.822Z,1.95
2023-05-06T08:57:43.280Z,2.20
2023-05-06T09:00:30.579Z,2.63
2023-05-06T09:03:17.572Z,2.45
2023-05-06T09:06:05.235Z,2.15
2023-05-06T09:08:52.114Z,1.98
2023-05-06T09:11:39.062Z,1.52
2023-05-06T09:14:25.860Z,1.88
2023-05-06T09:17:28.395Z,1.92
2023-05-06T09:20:15.595Z,1.90
2023-05-06T09:23:03.061Z,2.25
2023-05-06T09:25:51.151Z,2.13
2023-05-06T09:28:38.122Z,2.00
2023-05-06T09:31:26.219Z,2.25
2023-05-06T09:34:14.635Z,2.22
2023-05-06T09:37:02.347Z,2.50
2023-05-06T09:39:53.708Z,2.13
2023-05-06T09:42:43.577Z,2.08
2023-05-06T09:45:30.878Z,2.00
2023-05-06T09:48:17.719Z,2.17
2023-05-06T09:51:07.633Z,2.22
2023-05-06T09:53:56.621Z,1.80
2023-05-06T09:56:44.495Z,1.67
2023-05-06T09:59:32.601Z,1.65
2023-05-06T10:02:20.663Z,2.60
2023-05-06T10:05:09.770Z,2.40
2023-05-06T10:07:58.288Z,1.70
2023-05-06T10:10:48.729Z,1.77
2023-05-06T10:13:37.096Z,1.92
2023-05-06T10:16:24.125Z,2.30
2023-05-06T10:19:12.228Z,1.85
2023-05-06T10:22:19.395Z,1.80
2023-05-06T10:25:30.053Z,2.28
2023-05-06T10:28:19.563Z,2.28
2023-05-06T10:31:17.008Z,2.20
2023-05-06T10:34:07.733Z,2.40
2023-05-06T10:36:58.139Z,2.08
2023-05-06T10:39:45.885Z,2.90
2023-05-06T10:42:35.825Z,2.85
2023-05-06T10:45:22.898Z,2.50
2023-05-06T10:48:09.953Z,2.75
2023-05-06T10:51:18.538Z,2.42
2023-05-06T10:54:09.451Z,2.45
2023-05-06T10:56:58.953Z,2.45
2023-05-06T10:59:47.565Z,2.63
2023-05-06T11:02:34.605Z,2.42
2023-05-06T11:05:22.797Z,2.33
2023-05-06T11:08:10.493Z,2.70
2023-05-06T11:10:57.479Z,2.67
2023-05-06T11:13:44.341Z,3.08
2023-05-06T11:16:48.898Z,2.28
2023-05-06T11:19:37.707Z,2.05
2023-05-06T11:22:41.086Z,1.45
2023-05-06T11:25:43.306Z,1.63
2023-05-06T11:28:30.382Z,1.45
2023-05-06T11:31:17.615Z,1.55
2023-05-06T11:34:08.965Z,1.30
2023-05-06T11:36:58.869Z,1.67
2023-05-06T11:39:49.239Z,1.58
2023-05-06T11:42:36.255Z,1.75
2023-05-06T11:45:23.214Z,1.90
2023-05-06T11:48:17.721Z,2.17
2023-05-06T11:51:04.616Z,2.40
2023-05-06T11:53:53.147Z,3.20
2023-05-06T11:56:50.909Z,2.70
2023-05-06T11:59:39.508Z,3.65
2023-05-06T12:02:26.451Z,3.28
2023-05-06T12:05:13.767Z,3.20
2023-05-06T12:08:00.949Z,2.85
2023-05-06T12:10:47.923Z,3.10
2023-05-06T12:13:36.847Z,3.00
2023-05-06T12:16:25.698Z,2.92
2023-05-06T12:19:16.392Z,2.53
2023-05-06T12:22:24.716Z,1.98
2023-05-06T12:25:15.624Z,2.38
2023-05-06T12:28:23.640Z,2.25
2023-05-06T12:31:23.302Z,2.40
2023-05-06T12:34:10.731Z,2.40
2023-05-06T12:36:57.766Z,2.60
2023-05-06T12:39:44.629Z,2.72
2023-05-06T12:42:31.663Z,3.55
2023-05-06T12:45:18.645Z,4.10
2023-05-06T12:48:06.861Z,4.05
2023-05-06T12:50:53.816Z,3.83
2023-05-06T12:53:41.015Z,3.55
2023-05-06T12:56:27.838Z,4.18
2023-05-06T12:59:14.897Z,3.17
2023-05-06T13:02:02.074Z,2.88
2023-05-06T13:04:49.500Z,3.75
2023-05-06T13:07:36.367Z,3.40
2023-05-06T13:10:23.354Z,3.47
2023-05-06T13:13:10.241Z,3.30
2023-05-06T13:15:57.186Z,3.67
2023-05-06T13:18:44.050Z,2.92
2023-05-06T13:21:32.061Z,3.13
2023-05-06T13:24:19.170Z,3.35
2023-05-06T13:27:06.110Z,3.53
2023-05-06T13:29:52.958Z,3.65
2023-05-06T13:32:39.878Z,3.40
2023-05-06T13:35:26.742Z,3.75
2023-05-06T13:38:13.556Z,3.67
2023-05-06T13:41:00.398Z,2.58
2023-05-06T13:43:47.236Z,1.90
2023-05-06T13:46:34.414Z,2.63
2023-05-06T13:49:21.326Z,2.08
2023-05-06T13:52:08.507Z,2.13
2023-05-06T13:54:56.791Z,3.13
2023-05-06T13:57:43.748Z,2.45
2023-05-06T14:00:30.904Z,1.88
2023-05-06T14:03:17.804Z,2.60
2023-05-06T14:06:04.997Z,2.20
2023-05-06T14:08:51.824Z,2.22
2023-05-06T14:11:38.730Z,2.33
2023-05-06T14:14:25.667Z,1.92
2023-05-06T14:17:12.532Z,1.92
2023-05-06T14:19:59.381Z,1.90
2023-05-06T14:22:46.280Z,1.58
2023-05-06T14:25:33.549Z,1.73
2023-05-06T14:28:20.559Z,2.03
2023-05-06T14:31:07.451Z,1.67
2023-05-06T14:33:54.453Z,1.67
2023-05-06T14:36:41.323Z,2.15
2023-05-06T14:39:28.258Z,2.00
2023-05-06T14:42:15.252Z,1.60
2023-05-06T14:45:02.448Z,1.30
2023-05-06T14:47:49.317Z,1.60
2023-05-06T14:50:36.238Z,2.38
2023-05-06T14:53:23.061Z,1.83
2023-05-06T14:56:10.741Z,1.80
2023-05-06T14:58:57.746Z,1.85
2023-05-06T15:01:44.669Z,1.50
2023-05-06T15:04:31.636Z,1.75
2023-05-06T15:07:18.584Z,2.05
2023-05-06T15:10:05.782Z,1.60
2023-05-06T15:12:52.743Z,1.90
2023-05-06T15:15:39.670Z,1.83
2023-05-06T15:18:26.567Z,1.98
2023-05-06T15:21:13.858Z,2.60
2023-05-06T15:24:01.651Z,1.90
2023-05-06T15:26:48.588Z,1.75
2023-05-06T15:29:37.850Z,1.85
2023-05-06T15:32:24.724Z,2.22
2023-05-06T15:35:12.098Z,1.90
2023-05-06T15:37:59.308Z,2.00
2023-05-06T15:40:50.641Z,2.00
2023-05-06T15:43:38.775Z,1.85
2023-05-06T15:46:27.377Z,1.92
2023-05-06T15:49:45.448Z,2.05
2023-05-06T15:52:21.259Z,2.58
2023-05-06T15:55:09.906Z,2.30
2023-05-06T15:57:59.836Z,2.47
2023-05-06T16:00:47.689Z,2.50
2023-05-06T16:03:36.300Z,2.10
2023-05-06T16:06:23.257Z,2.50
2023-05-06T16:09:10.476Z,2.65
2023-05-06T16:11:57.331Z,2.70
2023-05-06T16:14:44.526Z,2.88
2023-05-06T16:17:32.927Z,2.35
2023-05-06T16:20:19.917Z,1.80
2023-05-06T16:23:07.332Z,2.40
2023-05-06T16:25:54.811Z,2.75
2023-05-06T16:28:41.650Z,3.28
2023-05-06T16:31:28.724Z,2.45
2023-05-06T16:34:15.774Z,2.30
2023-05-06T16:37:02.711Z,2.60
2023-05-06T16:39:49.629Z,2.10
2023-05-06T16:42:36.491Z,3.15
2023-05-06T16:45:23.426Z,3.33
2023-05-06T16:48:10.404Z,2.70
2023-05-06T16:50:58.221Z,2.58
2023-05-06T16:53:45.107Z,3.20
2023-05-06T16:56:44.163Z,2.92
2023-05-06T16:59:38.167Z,2.60
2023-05-06T17:02:25.167Z,3.15
2023-05-06T17:05:12.086Z,3.65
2023-05-06T17:07:59.286Z,2.83
2023-05-06T17:10:46.249Z,3.05
2023-05-06T17:13:33.541Z,3.63
2023-05-06T17:16:21.549Z,3.33
2023-05-06T17:19:08.700Z,3.83
2023-05-06T17:21:58.265Z,2.97
2023-05-06T17:24:45.118Z,3.50
2023-05-06T17:27:32.080Z,3.17
2023-05-06T17:30:20.781Z,3.60
2023-05-06T17:33:07.791Z,3.30
2023-05-06T17:35:54.652Z,3.10
2023-05-06T17:38:41.483Z,3.20
2023-05-06T17:41:28.360Z,3.35
2023-05-06T17:44:17.595Z,3.25
2023-05-06T17:47:04.476Z,3.25
2023-05-06T17:49:54.562Z,3.40
2023-05-06T17:52:41.638Z,4.32
2023-05-06T17:55:28.564Z,4.97
2023-05-06T17:58:16.985Z,4.13
2023-05-06T18:01:04.111Z,7.05
2023-05-06T18:03:51.197Z,4.80
2023-05-06T18:06:38.660Z,4.70
2023-05-06T18:09:25.577Z,4.38
2023-05-06T18:12:15.777Z,3.75
2023-05-06T18:15:02.870Z,4.53
2023-05-06T18:17:50.174Z,3.78
2023-05-06T18:20:37.068Z,3.80
2023-05-06T18:23:24.081Z,3.50
2023-05-06T18:26:11.185Z,3.67
2023-05-06T18:28:58.172Z,3.33
2023-05-06T18:31:45.134Z,3.30
2023-05-06T18:34:32.106Z,3.15
2023-05-06T18:37:18.930Z,2.63
2023-05-06T18:40:08.982Z,3.75
2023-05-06T18:42:56.752Z,3.08
2023-05-06T18:45:43.830Z,3.50
2023-05-06T18:48:32.042Z,3.63
2023-05-06T18:51:19.038Z,2.83
2023-05-06T18:54:07.044Z,3.20
2023-05-06T18:56:55.029Z,3.08
2023-05-06T18:59:42.034Z,3.70
2023-05-06T19:02:28.958Z,2.42
2023-05-06T19:05:15.848Z,2.70
2023-05-06T19:08:05.145Z,3.03
2023-05-06T19:10:52.038Z,3.17
2023-05-06T19:13:38.967Z,2.75
2023-05-06T19:16:26.006Z,3.28
2023-05-06T19:19:12.907Z,2.90
2023-05-06T19:22:01.730Z,3.28
2023-05-06T19:24:48.681Z,3.10
2023-05-06T19:27:35.513Z,3.30
2023-05-06T19:30:22.380Z,3.33
2023-05-06T19:33:09.342Z,3.70
2023-05-06T19:35:56.285Z,2.75
2023-05-06T19:38:43.126Z,3.22
2023-05-06T19:41:30.003Z,3.03
2023-05-06T19:44:16.840Z,3.58
2023-05-06T19:47:03.798Z,3.03
2023-05-06T19:49:53.716Z,3.05
2023-05-06T19:52:40.764Z,3.45
2023-05-06T19:55:27.638Z,2.70
2023-05-06T19:58:17.175Z,3.40
2023-05-06T20:01:04.342Z,4.43
2023-05-06T20:03:52.690Z,3.90
2023-05-06T20:06:39.777Z,5.07
2023-05-06T20:09:26.705Z,4.38
2023-05-06T20:12:13.549Z,4.95
2023-05-06T20:15:00.751Z,4.78
2023-05-06T20:17:47.662Z,4.57
2023-05-06T20:20:34.655Z,4.32
2023-05-06T20:23:21.498Z,4.40
2023-05-06T20:26:08.400Z,4.18
2023-05-06T20:28:55.332Z,4.60
2023-05-06T20:31:45.832Z,3.92
2023-05-06T20:34:32.794Z,4.03
2023-05-06T20:37:20.122Z,4.22
2023-05-06T20:40:07.930Z,3.72
2023-05-06T20:42:54.878Z,3.58
2023-05-06T20:45:41.722Z,4.13
2023-05-06T20:48:30.630Z,3.60
2023-05-06T20:51:17.913Z,4.20
2023-05-06T20:54:04.816Z,4.00
2023-05-06T20:56:51.672Z,3.92
2023-05-06T20:59:38.803Z,3.95
2023-05-06T21:02:29.166Z,3.92
2023-05-06T21:05:16.344Z,3.70
2023-05-06T21:08:03.245Z,4.20
2023-05-06T21:10:50.180Z,4.28
2023-05-06T21:13:37.109Z,3.70
2023-05-06T21:16:23.997Z,3.92
2023-05-06T21:19:10.878Z,3.83
2023-05-06T21:21:58.040Z,3.95
2023-05-06T21:24:44.910Z,4.20
2023-05-06T21:27:31.963Z,4.45
2023-05-06T21:30:24.046Z,3.95
2023-05-06T21:33:11.401Z,4.88
2023-05-06T21:35:58.667Z,4.35
2023-05-06T21:38:48.496Z,4.15
2023-05-06T21:41:36.151Z,3.30
2023-05-06T21:44:23.057Z,4.25
2023-05-06T21:47:09.903Z,4.75
2023-05-06T21:49:56.815Z,4.45
2023-05-06T21:52:43.770Z,4.38
2023-05-06T21:55:30.635Z,4.13
2023-05-06T21:58:17.524Z,4.30
2023-05-06T22:01:04.552Z,4.93
2023-05-06T22:03:52.027Z,4.53
2023-05-06T22:06:39.598Z,5.20
2023-05-06T22:09:26.616Z,4.32
2023-05-06T22:12:15.415Z,4.72
2023-05-06T22:15:02.439Z,4.03
2023-05-06T22:17:49.514Z,4.22
2023-05-06T22:20:37.571Z,4.10
2023-05-06T22:23:25.500Z,3.92
2023-05-06T22:26:12.418Z,3.75
2023-05-06T22:28:59.465Z,3.90
2023-05-06T22:31:46.606Z,4.40
2023-05-06T22:34:33.472Z,4.10
2023-05-06T22:37:20.602Z,4.40
2023-05-06T22:40:08.023Z,4.07
2023-05-06T22:42:55.733Z,3.70
2023-05-06T22:45:43.156Z,3.80
2023-05-06T22:48:31.800Z,3.42
2023-05-06T22:51:20.166Z,3.42
2023-05-06T22:54:06.976Z,4.13
2023-05-06T22:56:53.948Z,3.63
2023-05-06T22:59:40.918Z,3.53
2023-05-06T23:02:28.507Z,3.50
2023-05-06T23:05:15.400Z,4.03
2023-05-06T23:08:02.317Z,3.90
2023-05-06T23:10:49.123Z,4.45
2023-05-06T23:13:36.589Z,3.70
2023-05-06T23:16:23.552Z,3.72
2023-05-06T23:19:10.837Z,3.97
2023-05-06T23:21:57.704Z,3.38
2023-05-06T23:24:44.923Z,4.13
2023-05-06T23:27:31.764Z,4.07
2023-05-06T23:30:18.643Z,4.93
2023-05-06T23:33:06.946Z,4.00
2023-05-06T23:35:53.952Z,4.10
2023-05-06T23:38:40.801Z,3.50
2023-05-06T23:41:28.712Z,3.50
2023-05-06T23:44:15.651Z,3.75
2023-05-06T23:47:02.597Z,3.13
2023-05-06T23:49:49.444Z,3.35
2023-05-06T23:52:38.249Z,3.67
2023-05-06T23:55:28.165Z,3.33
2023-05-06T23:58:15.176Z,2.97
